createdAt,value
2018-06-23T00:01:49.643Z,99.90
2018-06-23T00:04:24.080Z,99.90
2018-06-23T00:06:58.595Z,99.90
2018-06-23T00:09:33.014Z,99.90
2018-06-23T00:12:07.374Z,99.90
2018-06-23T00:14:41.800Z,99.90
2018-06-23T00:17:16.057Z,99.90
2018-06-23T00:19:50.314Z,99.90
2018-06-23T00:22:24.565Z,99.90
2018-06-23T00:24:59.298Z,99.90
2018-06-23T00:27:33.497Z,99.90
2018-06-23T00:32:41.760Z,99.90
2018-06-23T00:35:16.064Z,99.90
2018-06-23T00:40:24.641Z,99.90
2018-06-23T00:42:59.112Z,99.90
2018-06-23T00:45:33.607Z,99.90
2018-06-23T00:48:08.043Z,99.90
2018-06-23T00:50:42.393Z,99.90
2018-06-23T00:58:25.107Z,99.90
2018-06-23T01:00:59.531Z,99.90
2018-06-23T01:03:33.868Z,99.90
2018-06-23T01:06:08.203Z,99.90
2018-06-23T01:08:42.694Z,99.90
2018-06-23T01:11:17.284Z,99.90
2018-06-23T01:13:51.751Z,99.90
2018-06-23T01:16:26.083Z,99.90
2018-06-23T01:19:00.472Z,99.90
2018-06-23T01:24:09.094Z,99.90
2018-06-23T01:26:43.647Z,99.90
2018-06-23T01:29:18.008Z,99.90
2018-06-23T01:34:26.710Z,99.90
2018-06-23T01:37:01.036Z,99.90
2018-06-23T01:39:35.525Z,99.90
2018-06-23T01:42:09.909Z,99.90
2018-06-23T01:44:44.337Z,99.90
2018-06-23T01:47:18.684Z,99.90
2018-06-23T01:49:53.049Z,99.90
2018-06-23T01:52:27.425Z,99.90
2018-06-23T01:55:02.010Z,99.90
2018-06-23T02:00:10.408Z,99.90
2018-06-23T02:02:44.773Z,99.90
2018-06-23T02:05:19.163Z,99.90
2018-06-23T02:10:27.754Z,99.90
2018-06-23T02:13:02.306Z,99.90
2018-06-23T02:15:42.080Z,99.90
2018-06-23T02:18:21.923Z,99.90
2018-06-23T02:21:01.724Z,99.90
2018-06-23T02:23:41.357Z,99.90
2018-06-23T02:26:21.051Z,99.90
2018-06-23T02:31:40.380Z,99.90
2018-06-23T02:34:19.958Z,99.90
2018-06-23T02:36:54.310Z,99.90
2018-06-23T02:42:02.747Z,99.90
2018-06-23T02:47:11.206Z,99.90
2018-06-23T02:49:45.567Z,99.90
2018-06-23T02:52:19.989Z,99.90
2018-06-23T02:57:28.719Z,99.90
2018-06-23T03:00:03.135Z,99.90
2018-06-23T03:05:11.816Z,99.90
2018-06-23T03:07:46.241Z,99.90
2018-06-23T03:10:20.593Z,99.90
2018-06-23T03:12:55.022Z,99.90
2018-06-23T03:15:29.399Z,99.90
2018-06-23T03:18:03.779Z,99.90
2018-06-23T03:20:38.124Z,99.90
2018-06-23T03:23:12.549Z,99.90
2018-06-23T03:28:20.923Z,99.90
2018-06-23T03:30:55.286Z,99.90
2018-06-23T03:33:29.683Z,99.90
2018-06-23T03:38:38.027Z,99.90
2018-06-23T03:41:12.256Z,99.90
2018-06-23T03:43:46.629Z,99.90
2018-06-23T03:46:20.875Z,99.90
2018-06-23T03:48:55.886Z,99.90
2018-06-23T03:51:30.206Z,99.90
2018-06-23T03:54:04.528Z,99.90
2018-06-23T03:56:38.814Z,99.90
2018-06-23T04:01:47.322Z,99.90
2018-06-23T04:04:21.781Z,99.90
2018-06-23T04:06:56.166Z,99.90
2018-06-23T04:09:30.583Z,99.90
2018-06-23T04:12:04.845Z,99.90
2018-06-23T04:14:39.141Z,99.90
2018-06-23T04:17:13.387Z,99.90
2018-06-23T04:19:47.843Z,99.90
2018-06-23T04:22:22.173Z,99.90
2018-06-23T04:24:56.580Z,99.90
2018-06-23T04:27:30.922Z,99.90
2018-06-23T04:30:05.357Z,99.90
2018-06-23T04:32:40.050Z,99.90
2018-06-23T04:35:14.490Z,99.90
2018-06-23T04:37:48.896Z,99.90
2018-06-23T04:40:23.095Z,99.90
2018-06-23T04:42:57.435Z,99.90
2018-06-23T04:45:31.856Z,99.90
2018-06-23T04:48:06.302Z,99.90
2018-06-23T04:50:40.681Z,99.90
2018-06-23T04:55:49.553Z,99.90
2018-06-23T04:58:23.968Z,99.90
2018-06-23T05:00:58.417Z,99.90
2018-06-23T05:03:32.715Z,99.90
2018-06-23T05:06:07.481Z,99.90
2018-06-23T05:08:41.886Z,99.90
2018-06-23T05:11:16.351Z,99.90
2018-06-23T05:16:25.236Z,99.90
2018-06-23T05:18:59.641Z,99.90
2018-06-23T05:21:33.934Z,99.90
2018-06-23T05:24:08.316Z,99.90
2018-06-23T05:29:16.798Z,99.90
2018-06-23T05:31:51.238Z,99.90
2018-06-23T05:34:25.618Z,99.90
2018-06-23T05:36:59.934Z,99.90
2018-06-23T05:44:42.648Z,99.90
2018-06-23T05:47:17.093Z,99.90
2018-06-23T05:49:51.564Z,99.90
2018-06-23T05:55:00.243Z,99.90
2018-06-23T05:57:34.495Z,99.90
2018-06-23T06:02:42.806Z,99.60
2018-06-23T06:05:17.336Z,99.30
2018-06-23T06:07:51.535Z,99.90
2018-06-23T06:13:00.043Z,99.90
2018-06-23T06:18:08.535Z,98.90
2018-06-23T06:20:42.818Z,97.50
2018-06-23T06:25:51.220Z,97.20
2018-06-23T06:28:25.682Z,97.40
2018-06-23T06:31:00.093Z,98.80
2018-06-23T06:33:34.309Z,98.10
2018-06-23T06:38:42.609Z,96.50
2018-06-23T06:41:16.958Z,95.80
2018-06-23T06:43:51.497Z,96.90
2018-06-23T06:46:25.850Z,96.40
2018-06-23T06:51:34.162Z,95.80
2018-06-23T06:54:08.453Z,95.10
2018-06-23T06:56:42.828Z,94.70
2018-06-23T06:59:17.434Z,93.00
2018-06-23T07:04:25.776Z,94.10
2018-06-23T07:07:00.248Z,94.90
2018-06-23T07:09:34.660Z,93.20
2018-06-23T07:12:09.220Z,94.30
2018-06-23T07:14:43.536Z,94.80
2018-06-23T07:19:52.046Z,94.00
2018-06-23T07:25:00.702Z,93.90
2018-06-23T07:27:35.043Z,95.30
2018-06-23T07:30:09.509Z,97.00
2018-06-23T07:32:43.774Z,95.90
2018-06-23T07:35:18.303Z,96.20
2018-06-23T07:37:52.536Z,95.30
2018-06-23T07:40:27.022Z,95.20
2018-06-23T07:43:01.448Z,94.60
2018-06-23T07:45:35.756Z,95.50
2018-06-23T07:48:10.121Z,94.70
2018-06-23T07:53:18.690Z,92.50
2018-06-23T07:55:53.123Z,93.10
2018-06-23T08:01:02.070Z,94.00
2018-06-23T08:11:19.926Z,92.50
2018-06-23T08:13:54.247Z,92.00
2018-06-23T08:16:28.677Z,90.60
2018-06-23T08:24:11.623Z,90.30
2018-06-23T08:29:20.150Z,90.80
2018-06-23T08:31:54.517Z,90.40
2018-06-23T08:34:28.832Z,91.60
2018-06-23T08:39:37.338Z,86.60
2018-06-23T08:42:11.642Z,85.70
2018-06-23T08:44:46.013Z,86.10
2018-06-23T08:52:28.928Z,90.30
2018-06-23T09:00:11.612Z,85.50
2018-06-23T09:02:46.141Z,84.40
2018-06-23T09:05:20.444Z,83.60
2018-06-23T09:07:54.671Z,87.20
2018-06-23T09:15:37.622Z,85.90
2018-06-23T09:20:46.012Z,83.70
2018-06-23T09:23:20.483Z,83.70
2018-06-23T09:28:28.917Z,80.90
2018-06-23T09:31:03.413Z,79.60
2018-06-23T09:33:37.650Z,82.00
2018-06-23T09:38:46.065Z,82.70
2018-06-23T09:41:20.295Z,81.00
2018-06-23T09:49:03.005Z,80.90
2018-06-23T09:51:37.271Z,80.10
2018-06-23T09:54:11.645Z,78.30
2018-06-23T09:56:45.937Z,80.10
2018-06-23T09:59:20.286Z,74.20
2018-06-23T10:01:54.607Z,74.80
2018-06-23T10:04:28.938Z,76.00
2018-06-23T10:09:37.291Z,75.10
2018-06-23T10:12:11.673Z,71.50
2018-06-23T10:17:20.171Z,75.70
2018-06-23T10:19:54.490Z,77.00
2018-06-23T10:22:28.831Z,74.60
2018-06-23T10:25:03.286Z,78.10
2018-06-23T10:27:37.769Z,78.30
2018-06-23T10:30:12.226Z,74.90
2018-06-23T10:35:20.547Z,70.20
2018-06-23T10:37:54.959Z,68.60
2018-06-23T10:40:29.212Z,69.80
2018-06-23T10:43:03.736Z,70.90
2018-06-23T10:45:38.177Z,73.70
2018-06-23T10:50:46.374Z,71.60
2018-06-23T10:53:23.750Z,71.50
2018-06-23T10:55:58.201Z,71.10
2018-06-23T11:01:06.964Z,70.20
2018-06-23T11:03:41.341Z,66.20
2018-06-23T11:06:15.744Z,65.60
2018-06-23T11:08:50.105Z,68.20
2018-06-23T11:11:24.451Z,65.90
2018-06-23T11:13:58.802Z,65.50
2018-06-23T11:16:33.132Z,65.60
2018-06-23T11:19:07.520Z,70.00
2018-06-23T11:21:41.878Z,68.70
2018-06-23T11:24:16.311Z,66.20
2018-06-23T11:26:50.924Z,67.40
2018-06-23T11:29:25.376Z,69.80
2018-06-23T11:34:33.921Z,64.60
2018-06-23T11:42:16.703Z,64.30
2018-06-23T11:47:25.210Z,62.50
2018-06-23T11:49:59.475Z,64.10
2018-06-23T11:52:33.775Z,62.40
2018-06-23T11:55:08.291Z,63.40
2018-06-23T12:00:16.913Z,67.20
2018-06-23T12:02:51.456Z,64.30
2018-06-23T12:05:25.915Z,64.70
2018-06-23T12:08:00.306Z,64.70
2018-06-23T12:10:34.678Z,62.40
2018-06-23T12:13:09.156Z,59.50
2018-06-23T12:20:52.032Z,58.50
2018-06-23T12:23:26.437Z,60.30
2018-06-23T12:28:34.966Z,60.20
2018-06-23T12:33:43.451Z,59.80
2018-06-23T12:38:51.963Z,61.10
2018-06-23T12:41:26.273Z,57.00
2018-06-23T12:44:00.708Z,57.40
2018-06-23T12:46:35.136Z,58.00
2018-06-23T12:49:09.611Z,57.40
2018-06-23T12:51:44.132Z,58.50
2018-06-23T12:56:52.829Z,59.10
2018-06-23T12:59:27.241Z,59.50
2018-06-23T13:02:01.554Z,58.80
2018-06-23T13:04:35.911Z,56.10
2018-06-23T13:07:10.301Z,58.60
2018-06-23T13:09:44.605Z,57.80
2018-06-23T13:12:19.224Z,56.80
2018-06-23T13:14:53.722Z,57.10
2018-06-23T13:17:28.148Z,57.70
2018-06-23T13:20:02.644Z,57.80
2018-06-23T13:22:37.062Z,56.80
2018-06-23T13:25:11.382Z,58.70
2018-06-23T13:27:45.830Z,58.80
2018-06-23T13:30:20.173Z,58.10
2018-06-23T13:32:54.543Z,57.40
2018-06-23T13:35:28.810Z,58.30
2018-06-23T13:38:03.348Z,58.00
2018-06-23T13:43:11.967Z,55.40
2018-06-23T13:50:54.669Z,55.50
2018-06-23T13:56:03.228Z,56.70
2018-06-23T13:58:37.560Z,56.20
2018-06-23T14:03:47.027Z,55.80
2018-06-23T14:06:21.317Z,55.40
2018-06-23T14:08:55.637Z,55.40
2018-06-23T14:11:30.043Z,59.30
2018-06-23T14:14:04.460Z,57.70
2018-06-23T14:16:39.075Z,56.50
2018-06-23T14:21:47.616Z,58.70
2018-06-23T14:24:22.025Z,58.80
2018-06-23T14:26:56.488Z,59.00
2018-06-23T14:29:30.947Z,57.20
2018-06-23T14:32:05.546Z,55.40
2018-06-23T14:34:39.833Z,55.20
2018-06-23T14:37:14.223Z,55.70
2018-06-23T14:39:48.511Z,55.50
2018-06-23T14:42:22.945Z,56.50
2018-06-23T14:44:57.370Z,56.70
2018-06-23T14:47:31.898Z,56.40
2018-06-23T14:50:06.265Z,54.80
2018-06-23T14:52:40.700Z,55.30
2018-06-23T14:55:15.010Z,54.60
2018-06-23T14:57:49.305Z,56.00
2018-06-23T15:00:23.690Z,54.50
2018-06-23T15:02:58.024Z,55.50
2018-06-23T15:05:32.510Z,56.00
2018-06-23T15:08:18.382Z,55.30
2018-06-23T15:13:32.856Z,54.80
2018-06-23T15:16:07.039Z,55.20
2018-06-23T15:18:41.507Z,55.10
2018-06-23T15:21:16.032Z,55.60
2018-06-23T15:23:50.378Z,55.40
2018-06-23T15:26:24.883Z,53.90
2018-06-23T15:28:59.303Z,53.60
2018-06-23T15:31:33.764Z,54.70
2018-06-23T15:34:08.162Z,54.90
2018-06-23T15:36:42.600Z,55.50
2018-06-23T15:39:17.013Z,54.80
2018-06-23T15:41:51.465Z,55.10
2018-06-23T15:44:25.781Z,53.90
2018-06-23T15:47:00.260Z,55.30
2018-06-23T15:49:34.633Z,54.70
2018-06-23T15:52:09.059Z,56.20
2018-06-23T15:54:43.522Z,55.70
2018-06-23T15:59:52.097Z,53.90
2018-06-23T16:05:00.330Z,54.20
2018-06-23T16:07:34.671Z,54.10
2018-06-23T16:10:14.639Z,54.10
2018-06-23T16:12:48.857Z,53.40
2018-06-23T16:15:23.236Z,55.70
2018-06-23T16:17:57.656Z,52.20
2018-06-23T16:20:31.976Z,50.80
2018-06-23T16:23:06.575Z,51.40
2018-06-23T16:25:40.854Z,51.20
2018-06-23T16:28:15.322Z,52.90
2018-06-23T16:30:49.593Z,52.70
2018-06-23T16:33:24.149Z,54.70
2018-06-23T16:35:58.390Z,52.20
2018-06-23T16:38:32.734Z,51.70
2018-06-23T16:41:07.050Z,51.30
2018-06-23T16:43:41.563Z,52.30
2018-06-23T16:46:15.886Z,52.60
2018-06-23T16:48:50.837Z,53.00
2018-06-23T16:51:25.246Z,53.80
2018-06-23T16:53:59.536Z,54.20
2018-06-23T16:56:33.999Z,55.40
2018-06-23T17:01:42.540Z,56.10
2018-06-23T17:04:17.014Z,56.10
2018-06-23T17:06:51.372Z,56.30
2018-06-23T17:09:26.254Z,57.80
2018-06-23T17:12:00.658Z,56.50
2018-06-23T17:14:35.182Z,56.10
2018-06-23T17:19:43.715Z,56.30
2018-06-23T17:22:18.100Z,56.90
2018-06-23T17:24:52.543Z,57.00
2018-06-23T17:27:26.816Z,57.50
2018-06-23T17:30:01.126Z,57.60
2018-06-23T17:32:35.475Z,58.00
2018-06-23T17:35:09.761Z,58.00
2018-06-23T17:40:18.293Z,58.50
2018-06-23T17:42:52.570Z,58.80
2018-06-23T17:45:26.865Z,58.60
2018-06-23T17:48:01.285Z,58.90
2018-06-23T17:50:35.610Z,59.30
2018-06-23T17:53:09.932Z,59.20
2018-06-23T17:55:44.435Z,59.40
2018-06-23T18:00:53.082Z,60.40
2018-06-23T18:03:27.455Z,59.30
2018-06-23T18:06:02.014Z,59.90
2018-06-23T18:08:36.277Z,60.50
2018-06-23T18:11:10.711Z,58.80
2018-06-23T18:13:44.995Z,59.50
2018-06-23T18:16:19.362Z,60.00
2018-06-23T18:18:53.850Z,61.30
2018-06-23T18:24:02.382Z,60.80
2018-06-23T18:26:36.671Z,60.30
2018-06-23T18:31:45.261Z,60.20
2018-06-23T18:34:19.602Z,61.10
2018-06-23T18:36:53.986Z,61.30
2018-06-23T18:42:02.393Z,61.00
2018-06-23T18:44:36.810Z,61.20
2018-06-23T18:47:11.207Z,62.20
2018-06-23T18:49:45.626Z,63.50
2018-06-23T18:52:20.041Z,63.00
2018-06-23T18:54:54.543Z,63.80
2018-06-23T18:57:29.015Z,64.10
2018-06-23T19:00:03.506Z,64.10
2018-06-23T19:02:38.149Z,64.40
2018-06-23T19:05:12.577Z,63.60
2018-06-23T19:07:46.878Z,65.90
2018-06-23T19:12:55.271Z,65.50
2018-06-23T19:15:29.697Z,64.70
2018-06-23T19:18:04.043Z,64.50
2018-06-23T19:20:38.465Z,65.50
2018-06-23T19:23:12.771Z,64.90
2018-06-23T19:25:47.241Z,66.60
2018-06-23T19:28:21.646Z,65.50
2018-06-23T19:30:56.072Z,65.50
2018-06-23T19:33:30.522Z,65.50
2018-06-23T19:36:04.883Z,67.50
2018-06-23T19:38:39.228Z,68.30
2018-06-23T19:41:21.079Z,66.70
2018-06-23T19:46:29.398Z,67.00
2018-06-23T19:49:03.659Z,66.60
2018-06-23T19:51:38.098Z,64.70
2018-06-23T19:54:12.488Z,71.30
2018-06-23T19:56:46.850Z,72.60
2018-06-23T19:59:21.295Z,73.80
2018-06-23T20:01:55.873Z,75.10
2018-06-23T20:04:30.480Z,76.70
2018-06-23T20:07:04.912Z,76.90
2018-06-23T20:09:39.175Z,76.80
2018-06-23T20:12:13.620Z,75.90
2018-06-23T20:14:48.125Z,77.20
2018-06-23T20:17:22.428Z,77.40
2018-06-23T20:19:56.768Z,76.60
2018-06-23T20:25:05.612Z,76.90
2018-06-23T20:37:56.956Z,77.30
2018-06-23T20:43:05.826Z,80.50
2018-06-23T20:45:40.313Z,80.50
2018-06-23T20:48:14.857Z,80.90
2018-06-23T20:50:49.256Z,82.70
2018-06-23T20:53:23.576Z,82.40
2018-06-23T20:55:57.924Z,81.90
2018-06-23T20:58:32.195Z,81.50
2018-06-23T21:01:06.462Z,82.70
2018-06-23T21:03:40.811Z,84.40
2018-06-23T21:06:15.160Z,84.50
2018-06-23T21:11:23.695Z,86.10
2018-06-23T21:16:32.107Z,87.90
2018-06-23T21:19:06.517Z,89.10
2018-06-23T21:21:40.830Z,88.40
2018-06-23T21:24:15.139Z,87.70
2018-06-23T21:26:49.506Z,86.30
2018-06-23T21:29:23.887Z,85.80
2018-06-23T21:34:32.344Z,86.40
2018-06-23T21:39:40.786Z,88.70
2018-06-23T21:42:15.248Z,87.90
2018-06-23T21:47:24.533Z,89.20
2018-06-23T21:49:58.789Z,89.20
2018-06-23T21:52:33.627Z,90.10
2018-06-23T21:55:08.027Z,88.70
2018-06-23T21:57:42.462Z,89.70
2018-06-23T22:02:55.378Z,90.50
2018-06-23T22:05:30.227Z,90.70
2018-06-23T22:08:06.397Z,91.70
2018-06-23T22:10:40.671Z,92.00
2018-06-23T22:13:15.164Z,92.40
2018-06-23T22:15:49.694Z,92.10
2018-06-23T22:18:24.029Z,92.60
2018-06-23T22:23:32.423Z,92.80
2018-06-23T22:26:06.741Z,93.30
2018-06-23T22:28:41.166Z,94.40
2018-06-23T22:31:15.547Z,94.90
2018-06-23T22:33:49.789Z,94.40
2018-06-23T22:36:24.154Z,94.00
2018-06-23T22:38:58.636Z,95.70
2018-06-23T22:41:32.976Z,97.10
2018-06-23T22:44:07.554Z,98.10
2018-06-23T22:46:42.035Z,99.90
2018-06-23T22:49:16.462Z,99.90
2018-06-23T22:51:50.800Z,99.90
2018-06-23T22:54:25.226Z,99.90
2018-06-23T22:56:59.492Z,99.90
2018-06-23T22:59:33.727Z,99.90
2018-06-23T23:02:08.063Z,99.90
2018-06-23T23:04:42.291Z,99.90
2018-06-23T23:09:50.760Z,99.90
2018-06-23T23:12:25.031Z,99.90
2018-06-23T23:14:59.305Z,99.90
2018-06-23T23:17:33.696Z,99.90
2018-06-23T23:20:08.175Z,99.90
2018-06-23T23:22:42.390Z,99.90
2018-06-23T23:25:16.677Z,99.90
2018-06-23T23:27:51.040Z,99.90
2018-06-23T23:30:25.530Z,99.90
2018-06-23T23:35:34.167Z,99.90
2018-06-23T23:38:08.461Z,99.90
2018-06-23T23:43:16.999Z,99.90
2018-06-23T23:45:51.260Z,99.90
2018-06-23T23:48:25.644Z,99.90
2018-06-23T23:56:08.659Z,99.90
2018-06-23T23:58:43.080Z,99.90
